Time;durP1;ratioP1;P1;durP2;ratioP2;P2;SDS_P1;SDS_P2;PMS_P1;PMS_P2;Temp;Humidity;BMP_temperature;BMP_pressure;BME280_temperature;BME280_humidity;BME280_pressure;Samples;Min_cycle;Max_cycle;Signal;HPM_P1;HPM_P2
2022/01/27 00:03:32;;;;;;;4.03;3.58;;;;;;;19.78;33.71;100656.19;1840558;77;32246;-71
2022/01/27 00:06:18;;;;;;;4.12;3.60;;;;;;;19.81;33.67;100658.55;1815870;77;28302;-69
2022/01/27 00:09:43;;;;;;;4.08;3.77;;;;;;;19.78;33.70;100657.55;1843432;76;28371;-69
2022/01/27 00:12:17;;;;;;;3.95;3.65;;;;;;;19.83;33.67;100659.20;1850433;77;28420;-70
2022/01/27 00:15:11;;;;;;;3.98;3.67;;;;;;;19.83;33.66;100662.78;1849443;77;28365;-70
2022/01/27 00:18:03;;;;;;;4.08;3.72;;;;;;;19.85;33.65;100661.22;1840170;77;28332;-68
2022/01/27 00:20:50;;;;;;;3.80;3.50;;;;;;;19.85;33.66;100661.22;1825313;77;28875;-70
2022/01/27 00:23:41;;;;;;;4.40;4.00;;;;;;;19.86;33.63;100667.84;1821267;77;28379;-68
2022/01/27 00:26:29;;;;;;;4.10;3.70;;;;;;;19.87;33.63;100670.05;1816364;77;28437;-67
2022/01/27 00:29:17;;;;;;;4.37;3.98;;;;;;;19.85;33.63;100666.16;1805690;78;28274;-68
2022/01/27 00:32:06;;;;;;;4.05;3.70;;;;;;;19.88;33.63;100664.41;1802966;78;28357;-68
2022/01/27 00:34:55;;;;;;;4.10;3.70;;;;;;;19.86;33.62;100668.38;1818955;77;28505;-70
2022/01/27 00:37:44;;;;;;;3.80;3.50;;;;;;;19.87;33.59;100667.33;1812091;78;28331;-67
2022/01/27 00:40:32;;;;;;;5.72;3.90;;;;;;;19.90;33.58;100668.33;1851279;76;28315;-67
2022/01/27 00:43:21;;;;;;;4.25;3.85;;;;;;;19.91;33.54;100670.00;1833061;77;28365;-67
2022/01/27 00:46:14;;;;;;;4.28;3.87;;;;;;;19.89;33.56;100664.74;1820973;78;28157;-68
2022/01/27 00:48:59;;;;;;;4.10;3.80;;;;;;;19.87;33.57;100655.91;1789667;78;28511;-67
2022/01/27 00:51:48;;;;;;;4.10;3.70;;;;;;;19.86;33.75;100649.30;1839089;77;28329;-67
2022/01/27 00:54:36;;;;;;;4.03;3.67;;;;;;;19.86;33.75;100649.30;1821128;77;28328;-67
2022/01/27 01:00:20;;;;;;;4.20;3.80;;;;;;;19.88;33.62;100635.77;1866266;75;28194;-68
2022/01/27 01:03:11;;;;;;;5.28;3.83;;;;;;;19.88;33.62;100635.77;1892942;75;28111;-68
2022/01/27 01:14:49;;;;;;;4.40;4.00;;;;;;;19.90;33.56;100635.61;1880921;75;28272;-70
2022/01/27 01:30:09;;;;;;;4.40;4.08;;;;;;;19.90;33.56;100619.24;1873740;75;28487;-69
2022/01/27 01:32:53;;;;;;;4.17;3.87;;;;;;;19.87;33.59;100630.01;1874276;75;28254;-67
2022/01/27 01:35:49;;;;;;;4.17;3.87;;;;;;;19.89;33.54;100635.27;1873774;75;28126;-70
2022/01/27 01:38:38;;;;;;;4.28;3.92;;;;;;;19.88;33.51;100633.59;1883209;75;28147;-70
2022/01/27 01:41:26;;;;;;;5.50;4.10;;;;;;;19.89;33.53;100626.57;1857430;75;28119;-71
2022/01/27 01:44:15;;;;;;;4.47;4.08;;;;;;;19.93;33.48;100628.38;1903240;74;28252;-70
2022/01/27 01:47:05;;;;;;;4.45;4.05;;;;;;;19.93;33.46;100636.56;1857030;77;28205;-70
2022/01/27 01:49:53;;;;;;;4.67;4.28;;;;;;;19.93;33.48;100634.69;1871561;75;29341;-69
2022/01/27 01:52:42;;;;;;;4.30;4.00;;;;;;;19.94;33.44;100638.27;1880588;75;28239;-70
2022/01/27 01:55:31;;;;;;;4.47;4.08;;;;;;;19.95;33.43;100639.98;1878701;75;28198;-71
2022/01/27 01:58:20;;;;;;;4.37;3.98;;;;;;;19.95;33.42;100642.70;1889597;75;28231;-69
2022/01/27 02:01:08;;;;;;;4.35;4.05;;;;;;;19.96;33.41;100638.92;1879011;75;28089;-72
2022/01/27 02:04:01;;;;;;;5.72;3.98;;;;;;;19.96;33.35;100641.65;1889064;75;28170;-71
2022/01/27 02:06:57;;;;;;;4.57;4.17;;;;;;;19.96;33.39;100638.92;1871000;75;28179;-71
2022/01/27 02:19:03;;;;;;;5.33;4.20;;;;;;;19.93;33.41;100621.56;1872650;75;28053;-71
2022/01/27 02:21:55;;;;;;;4.58;4.25;;;;;;;19.94;33.37;100611.00;1857191;77;28131;-71
2022/01/27 02:24:43;;;;;;;4.60;4.20;;;;;;;19.94;33.36;100608.27;1881075;75;28179;-71
2022/01/27 02:27:33;;;;;;;4.20;3.90;;;;;;;19.94;33.34;100605.55;1859595;75;28123;-69
2022/01/27 02:30:22;;;;;;;4.42;4.03;;;;;;;19.97;33.36;100607.91;1904802;74;28218;-70
2022/01/27 02:33:11;;;;;;;5.40;4.40;;;;;;;19.97;33.32;100604.67;1904381;74;28094;-69
2022/01/27 02:35:59;;;;;;;4.50;4.10;;;;;;;19.99;33.29;100599.02;1903913;74;28232;-69
2022/01/27 02:38:47;;;;;;;5.12;4.47;;;;;;;19.99;33.28;100603.09;1885025;75;28114;-69
2022/01/27 02:41:51;;;;;;;4.50;4.10;;;;;;;19.98;33.27;100604.97;1884751;75;28067;-71
2022/01/27 02:44:52;;;;;;;4.43;4.03;;;;;;;19.98;33.28;100596.80;1907059;74;28086;-69
2022/01/27 02:47:42;;;;;;;4.33;3.92;;;;;;;20.01;33.28;100605.11;1894607;74;28183;-69
2022/01/27 02:50:31;;;;;;;4.50;4.10;;;;;;;20.00;33.25;100599.31;1896732;74;28242;-69
2022/01/27 02:53:19;;;;;;;4.70;4.30;;;;;;;20.02;33.22;100597.78;1910186;74;28247;-68
2022/01/27 16:48:27;;;;;;;11.50;6.70;;;;;;;15.94;44.03;100596.17;1941362;72;28073;-77
2022/01/27 16:51:16;;;;;;;9.47;6.20;;;;;;;16.29;43.68;100605.41;1882481;74;28197;-87
2022/01/27 16:54:04;;;;;;;10.13;5.87;;;;;;;17.10;42.49;100602.77;1895677;73;38185;-87
2022/01/27 16:56:54;;;;;;;8.95;6.00;;;;;;;17.76;41.25;100601.91;1876932;73;28613;-80
2022/01/27 16:59:43;;;;;;;9.07;6.27;;;;;;;18.32;40.17;100604.02;1878351;75;28096;-76
2022/01/27 17:02:32;;;;;;;8.88;5.85;;;;;;;18.72;39.31;100602.38;1907156;73;28039;-84
2022/01/27 17:05:21;;;;;;;8.60;5.85;;;;;;;19.07;38.51;100604.45;1918097;73;28058;-83
2022/01/27 17:08:09;;;;;;;8.65;6.28;;;;;;;19.39;37.78;100613.37;1890963;75;28219;-75
2022/01/27 17:10:58;;;;;;;10.25;6.08;;;;;;;19.57;37.25;100602.94;1891979;75;28190;-80
2022/01/27 17:13:46;;;;;;;7.47;5.90;;;;;;;19.81;36.78;100608.94;1869828;76;28182;-80
2022/01/27 17:16:35;;;;;;;9.68;5.83;;;;;;;19.95;36.36;100612.16;1884749;75;28057;-83
2022/01/27 17:19:25;;;;;;;8.43;6.08;;;;;;;20.10;35.98;100612.66;1892911;75;28156;-80
2022/01/27 17:22:16;;;;;;;7.80;6.10;;;;;;;20.22;35.70;100609.80;1891685;75;28103;-80
2022/01/27 17:25:06;;;;;;;7.58;5.47;;;;;;;20.28;35.38;100612.59;1890506;75;28157;-79
2022/01/27 17:27:55;;;;;;;8.17;5.77;;;;;;;20.24;35.20;100607.72;1884995;75;28115;-80
2022/01/27 17:30:44;;;;;;;8.70;5.80;;;;;;;20.23;35.17;100619.69;1893521;75;28172;-79
2022/01/27 17:33:32;;;;;;;8.45;5.47;;;;;;;20.34;35.02;100612.36;1872711;75;28223;-78
2022/01/27 17:36:21;;;;;;;7.03;5.25;;;;;;;20.42;34.82;100613.08;1902398;75;28030;-80
2022/01/27 17:39:10;;;;;;;7.50;5.65;;;;;;;20.47;34.66;100605.16;1883558;75;28166;-77
2022/01/27 17:42:03;;;;;;;10.03;6.20;;;;;;;20.53;34.58;100612.59;1880800;75;28037;-76
2022/01/27 17:45:00;;;;;;;6.97;5.70;;;;;;;20.56;34.47;100616.81;1878197;75;28169;-78
2022/01/27 17:47:39;;;;;;;7.47;5.67;;;;;;;20.59;34.37;100621.35;1885887;74;28061;-79
2022/01/27 17:50:28;;;;;;;8.30;5.90;;;;;;;20.58;34.35;100619.65;1882937;75;28058;-85
2022/01/27 17:53:17;;;;;;;7.93;5.63;;;;;;;20.57;34.27;100622.07;1868781;75;28062;-82
2022/01/27 17:56:06;;;;;;;7.25;5.37;;;;;;;20.62;34.20;100631.89;1880470;75;28107;-79
2022/01/27 17:58:54;;;;;;;6.35;5.15;;;;;;;20.63;34.13;100630.84;1872468;75;28106;-77
2022/01/27 18:01:43;;;;;;;7.95;5.50;;;;;;;20.62;34.12;100632.41;1869235;75;28105;-78
2022/01/27 18:04:32;;;;;;;6.92;5.60;;;;;;;20.63;34.09;100629.47;1879843;75;28077;-77
2022/01/27 18:07:22;;;;;;;6.42;5.45;;;;;;;20.64;34.00;100632.54;1867925;75;28169;-78
2022/01/27 18:10:11;;;;;;;6.45;5.55;;;;;;;20.68;33.99;100636.26;1857436;77;28122;-78
2022/01/27 18:13:00;;;;;;;5.78;5.17;;;;;;;20.68;33.94;100639.30;1879242;75;28019;-79
2022/01/27 18:15:48;;;;;;;6.17;5.37;;;;;;;20.71;33.90;100644.03;1885103;75;28086;-77
2022/01/27 18:18:37;;;;;;;5.78;5.00;;;;;;;20.73;33.81;100652.88;1889553;75;28093;-82
2022/01/27 18:21:26;;;;;;;7.10;5.35;;;;;;;20.72;33.88;100643.86;1871584;75;28013;-79
2022/01/27 18:24:15;;;;;;;6.92;5.50;;;;;;;20.62;33.88;100644.69;1893177;75;28271;-81
2022/01/27 18:27:03;;;;;;;7.27;5.17;;;;;;;20.57;33.88;100648.00;1869236;76;28151;-81
2022/01/27 18:29:52;;;;;;;5.87;4.93;;;;;;;20.55;33.91;100642.41;1876078;75;28076;-79
2022/01/27 18:32:40;;;;;;;7.03;5.03;;;;;;;20.52;33.82;100645.52;1877363;75;28651;-79
2022/01/27 18:35:29;;;;;;;6.45;5.15;;;;;;;20.51;33.77;100644.66;1864465;75;28113;-79
2022/01/27 18:38:18;;;;;;;6.40;5.10;;;;;;;20.48;33.74;100655.98;1887144;75;28027;-84
2022/01/27 18:41:07;;;;;;;5.67;5.07;;;;;;;20.44;33.81;100645.11;1857410;77;28155;-78
2022/01/27 18:43:55;;;;;;;5.75;5.08;;;;;;;20.53;33.75;100642.61;1869311;76;28144;-80
2022/01/27 18:46:43;;;;;;;7.53;5.10;;;;;;;20.59;33.55;100652.75;1885583;75;28034;-81
2022/01/27 18:49:31;;;;;;;6.92;5.22;;;;;;;20.59;33.55;100652.75;1901706;74;28072;-83
2022/01/27 18:52:20;;;;;;;5.90;5.00;;;;;;;20.61;33.74;100647.94;1884962;75;38434;-81
2022/01/27 18:55:09;;;;;;;6.70;5.08;;;;;;;20.68;33.70;100648.55;1869220;76;28125;-80
2022/01/27 18:57:58;;;;;;;7.78;5.20;;;;;;;20.67;33.71;100653.15;1896177;75;28033;-80
2022/01/27 19:00:46;;;;;;;6.53;5.08;;;;;;;20.68;33.62;100651.58;1880592;75;28135;-80
2022/01/27 19:03:35;;;;;;;11.10;6.60;;;;;;;20.61;33.69;100644.34;1883420;75;28104;-80
2022/01/27 19:06:23;;;;;;;9.15;5.90;;;;;;;20.50;33.42;100657.15;1881647;75;28159;-85
2022/01/27 19:09:12;;;;;;;6.17;5.30;;;;;;;20.52;33.47;100653.70;1876718;75;31231;-82
2022/01/27 19:12:00;;;;;;;7.97;5.22;;;;;;;20.49;33.48;100654.93;1889406;75;33931;-81
2022/01/27 19:14:49;;;;;;;6.87;5.40;;;;;;;20.54;33.45;100655.20;1891365;75;28106;-83
2022/01/27 19:17:37;;;;;;;6.03;5.20;;;;;;;20.53;33.40;100655.41;1900351;75;28153;-84
2022/01/27 19:20:26;;;;;;;7.65;4.97;;;;;;;20.50;33.49;100655.27;1882149;75;28014;-84
2022/01/27 19:23:19;;;;;;;6.15;4.90;;;;;;;20.52;33.42;100663.26;1884022;75;28033;-84
2022/01/27 19:26:07;;;;;;;6.50;5.10;;;;;;;20.50;33.42;100659.37;1890939;75;31964;-85
2022/01/27 19:28:56;;;;;;;7.62;4.75;;;;;;;20.49;33.48;100659.03;1889065;75;28021;-87
2022/01/27 19:31:44;;;;;;;5.70;4.80;;;;;;;20.49;33.45;100667.76;1880070;75;28077;-86
2022/01/27 19:34:34;;;;;;;6.10;5.20;;;;;;;20.48;33.47;100671.00;1876386;75;28626;-81
2022/01/27 19:37:23;;;;;;;5.37;4.60;;;;;;;20.47;33.51;100676.12;1869589;75;28133;-83
2022/01/27 19:40:12;;;;;;;7.55;5.20;;;;;;;20.41;33.57;100670.08;1890734;75;28117;-82
2022/01/27 19:43:01;;;;;;;6.50;4.85;;;;;;;20.39;33.63;100672.16;1886884;75;28099;-85
2022/01/27 19:45:49;;;;;;;7.25;5.05;;;;;;;20.41;33.82;100671.95;1833581;78;28128;-85
2022/01/27 19:48:41;;;;;;;5.85;4.60;;;;;;;20.40;33.85;100672.98;1880044;75;28115;-85
2022/01/27 19:51:35;;;;;;;6.65;4.90;;;;;;;20.42;33.95;100687.30;1874844;74;28179;-81
2022/01/27 19:54:19;;;;;;;5.37;4.85;;;;;;;20.41;33.90;100677.41;1870128;75;28093;-82
2022/01/27 19:57:09;;;;;;;5.70;4.20;;;;;;;20.40;33.98;100679.28;1885920;75;28064;-84
2022/01/27 19:59:57;;;;;;;5.00;4.50;;;;;;;20.41;34.03;100694.64;1867911;75;28099;-84
2022/01/27 20:02:47;;;;;;;5.80;4.45;;;;;;;20.42;34.00;100685.39;1871658;75;28010;-83
2022/01/27 20:05:36;;;;;;;6.40;4.60;;;;;;;20.40;34.05;100687.47;1880042;75;28014;-84
2022/01/27 20:08:29;;;;;;;5.78;4.90;;;;;;;20.37;34.12;100684.30;1884309;75;28091;-79
2022/01/27 20:11:17;;;;;;;4.90;4.40;;;;;;;20.37;34.11;100683.78;1879787;75;28061;-85
2022/01/27 20:14:06;;;;;;;4.97;4.47;;;;;;;20.38;34.04;100696.38;1867599;75;28096;-86
2022/01/27 20:16:54;;;;;;;5.60;4.33;;;;;;;20.40;34.07;100694.81;1901806;75;28129;-83
2022/01/27 20:19:54;;;;;;;5.23;4.40;;;;;;;20.43;34.11;100698.53;1872277;75;28104;-84
2022/01/27 20:22:36;;;;;;;5.35;4.30;;;;;;;20.41;34.10;100700.61;1866934;75;27991;-84
2022/01/27 20:25:24;;;;;;;4.90;4.40;;;;;;;20.38;34.14;100703.70;1877683;75;28138;-78
2022/01/27 20:28:14;;;;;;;5.72;4.45;;;;;;;20.39;34.17;100698.59;1888868;75;28048;-75
2022/01/27 20:31:04;;;;;;;5.17;4.40;;;;;;;20.37;34.23;100702.89;1871818;75;28058;-80
2022/01/27 20:33:52;;;;;;;4.65;4.20;;;;;;;20.39;34.22;100715.82;1875632;75;28075;-82
2022/01/27 20:36:41;;;;;;;5.45;4.40;;;;;;;20.40;34.25;100717.49;1878530;75;28106;-83
2022/01/27 20:39:35;;;;;;;4.80;4.30;;;;;;;20.40;34.25;100714.77;1868102;75;32886;-83
2022/01/27 20:42:20;;;;;;;5.87;4.15;;;;;;;20.43;34.25;100724.45;1856809;77;28145;-81
2022/01/27 20:45:10;;;;;;;5.65;4.20;;;;;;;20.44;34.24;100725.62;1896496;75;28011;-78
2022/01/27 20:47:59;;;;;;;5.17;4.47;;;;;;;20.43;34.28;100725.31;1866234;75;28114;-86
2022/01/27 20:50:49;;;;;;;4.80;4.17;;;;;;;20.44;34.28;100711.97;1885677;74;28053;-84
2022/01/27 20:53:41;;;;;;;4.97;4.33;;;;;;;20.44;34.21;100713.34;1880485;75;28006;-84
2022/01/27 20:56:28;;;;;;;5.50;4.30;;;;;;;20.44;34.18;100712.52;1879989;75;28132;-79
2022/01/27 20:59:18;;;;;;;5.65;4.53;;;;;;;20.41;34.25;100713.74;1879712;75;28122;-81
2022/01/27 21:02:06;;;;;;;5.23;4.50;;;;;;;20.43;34.27;100714.39;1884769;75;28249;-78
2022/01/27 21:04:54;;;;;;;4.80;4.30;;;;;;;20.42;34.21;100708.59;1879552;75;28189;-76
2022/01/27 21:07:43;;;;;;;5.37;4.15;;;;;;;20.48;34.22;100707.84;1811008;78;28110;-84
2022/01/27 21:10:32;;;;;;;4.45;4.05;;;;;;;20.42;34.28;100700.41;1885801;75;28091;-82
2022/01/27 21:13:25;;;;;;;4.92;4.12;;;;;;;20.40;34.17;100705.72;1898157;75;28035;-83
2022/01/27 21:16:11;;;;;;;5.87;4.42;;;;;;;20.33;34.17;100693.37;1893045;75;28115;-85
2022/01/27 21:18:59;;;;;;;4.70;4.17;;;;;;;20.30;34.16;100697.86;1890734;75;28123;-83
2022/01/27 21:21:48;;;;;;;5.20;4.50;;;;;;;20.27;34.20;100706.42;1875872;75;28559;-83
2022/01/27 21:24:38;;;;;;;5.00;4.00;;;;;;;20.25;34.19;100711.73;1885735;75;28043;-85
2022/01/27 21:27:26;;;;;;;4.97;4.00;;;;;;;20.23;34.14;100709.72;1869712;75;28138;-82
2022/01/27 21:30:14;;;;;;;4.90;4.10;;;;;;;20.19;34.21;100721.48;1886682;75;28122;-81
2022/01/27 21:33:04;;;;;;;4.90;3.98;;;;;;;20.18;34.24;100723.05;1876819;75;31047;-83
2022/01/27 21:35:52;;;;;;;4.80;4.28;;;;;;;20.19;34.25;100729.66;1880676;75;28157;-81
2022/01/27 21:38:41;;;;;;;4.45;4.05;;;;;;;20.18;34.26;100733.95;1875061;75;28061;-81
2022/01/27 21:41:30;;;;;;;4.70;4.20;;;;;;;20.18;34.25;100738.91;1882311;75;28069;-81
2022/01/27 21:44:18;;;;;;;4.60;4.20;;;;;;;20.19;34.21;100750.13;1883049;75;28101;-79
2022/01/27 21:47:07;;;;;;;4.42;4.03;;;;;;;20.20;34.25;100761.38;1869252;76;28185;-80
2022/01/27 21:49:55;;;;;;;4.42;3.77;;;;;;;20.20;34.23;100761.38;1895386;75;28147;-83
2022/01/27 21:52:45;;;;;;;5.87;3.80;;;;;;;20.15;34.25;100752.91;1895839;74;28185;-83
2022/01/27 21:55:33;;;;;;;4.35;3.95;;;;;;;20.15;34.29;100766.55;1902298;74;28081;-82
2022/01/27 21:58:22;;;;;;;4.62;3.92;;;;;;;20.16;34.27;100770.98;1878427;74;28235;-83
2022/01/27 22:01:12;;;;;;;4.20;3.80;;;;;;;20.16;34.31;100779.68;1898269;74;28001;-81
2022/01/27 22:04:00;;;;;;;4.30;3.90;;;;;;;20.13;34.31;100787.72;1896850;74;28157;-83
2022/01/27 22:06:48;;;;;;;4.83;3.63;;;;;;;20.09;34.05;100792.38;1900130;74;28047;-81
2022/01/27 22:09:37;;;;;;;4.67;3.93;;;;;;;20.09;34.05;100792.38;1900247;74;28066;-85
2022/01/27 22:12:27;;;;;;;4.07;3.70;;;;;;;20.14;34.34;100796.21;1886747;74;28100;-79
2022/01/27 22:15:15;;;;;;;4.20;3.80;;;;;;;20.13;34.32;100795.91;1903607;74;28082;-78
2022/01/27 22:18:03;;;;;;;4.12;3.72;;;;;;;20.12;34.34;100790.10;1875508;74;28094;-79
2022/01/27 22:20:52;;;;;;;4.25;3.85;;;;;;;20.12;34.35;100802.38;1886423;74;28635;-79
2022/01/27 22:23:41;;;;;;;4.28;3.80;;;;;;;20.10;34.37;100804.45;1895031;74;28231;-82
2022/01/27 22:26:29;;;;;;;4.67;4.10;;;;;;;20.11;34.36;100809.39;1899095;74;28136;-85
2022/01/27 22:29:20;;;;;;;3.95;3.55;;;;;;;20.11;34.38;100818.44;1898789;74;28008;-84
2022/01/27 22:32:08;;;;;;;4.30;3.83;;;;;;;20.12;34.33;100819.29;1892557;74;28149;-83
2022/01/27 22:34:57;;;;;;;4.90;3.87;;;;;;;20.15;34.36;100825.71;1908744;74;28078;-82
2022/01/27 22:37:45;;;;;;;3.90;3.60;;;;;;;20.10;34.38;100824.91;1900178;74;28072;-81
2022/01/27 22:40:33;;;;;;;4.17;3.77;;;;;;;20.09;34.41;100822.38;1880895;74;28160;-81
2022/01/27 22:43:23;;;;;;;4.55;4.10;;;;;;;20.10;34.38;100824.05;1901456;74;38425;-81
2022/01/27 22:46:11;;;;;;;4.10;3.70;;;;;;;20.09;34.43;100830.05;1891977;74;28110;-83
2022/01/27 22:49:00;;;;;;;4.15;3.75;;;;;;;20.09;34.42;100815.05;1891818;74;28255;-81
2022/01/27 22:51:51;;;;;;;4.20;3.80;;;;;;;20.08;34.42;100819.30;1890486;74;28129;-81
2022/01/27 22:54:39;;;;;;;4.47;3.98;;;;;;;20.06;34.41;100808.59;1875294;75;28162;-82
2022/01/27 22:57:28;;;;;;;3.70;3.33;;;;;;;20.10;34.37;100815.36;1882551;75;28114;-84
2022/01/27 23:00:19;;;;;;;4.25;3.72;;;;;;;20.12;34.35;100811.92;1882667;75;28141;-83
2022/01/27 23:03:08;;;;;;;4.40;4.00;;;;;;;20.12;34.33;100810.56;1888701;75;28133;-82
2022/01/27 23:05:56;;;;;;;4.33;3.92;;;;;;;20.08;34.42;100827.48;1870294;75;28107;-83
2022/01/27 23:08:45;;;;;;;3.87;3.58;;;;;;;20.13;34.35;100825.05;1886994;75;28113;-84
2022/01/27 23:11:36;;;;;;;3.83;3.52;;;;;;;20.11;34.35;100823.03;1869711;75;28073;-82
2022/01/27 23:14:43;;;;;;;3.80;3.40;;;;;;;20.09;34.35;100830.05;1882751;75;28052;-83
2022/01/27 23:17:30;;;;;;;3.90;3.60;;;;;;;20.08;34.42;100830.22;1878517;75;28163;-82
2022/01/27 23:20:20;;;;;;;3.80;3.50;;;;;;;20.08;34.41;100839.25;1859510;75;28751;-83
2022/01/27 23:23:08;;;;;;;3.87;3.50;;;;;;;20.08;34.37;100839.25;1871150;75;28179;-82
2022/01/27 23:25:52;;;;;;;4.28;3.85;;;;;;;20.07;34.40;100832.63;1901094;75;28114;-83
2022/01/27 23:28:42;;;;;;;3.92;3.60;;;;;;;20.04;34.39;100831.13;1885683;75;28202;-82
2022/01/27 23:31:33;;;;;;;3.93;3.50;;;;;;;20.05;34.43;100823.80;1869645;75;28129;-85
2022/01/27 23:34:20;;;;;;;3.90;3.60;;;;;;;20.05;34.41;100823.25;1870465;75;28162;-83
2022/01/27 23:43:30;;;;;;;4.00;3.60;;;;;;;20.00;34.46;100790.23;1872621;75;28223;-82
2022/01/27 23:46:16;;;;;;;3.93;3.63;;;;;;;19.99;34.52;100777.64;1900675;75;28097;-83
2022/01/27 23:48:55;;;;;;;4.35;3.80;;;;;;;20.00;34.46;100767.90;1886502;75;28184;-81
2022/01/27 23:54:55;;;;;;;3.75;3.45;;;;;;;20.02;34.44;100759.55;1873044;74;28063;-80
2022/01/27 23:57:38;;;;;;;3.75;3.45;;;;;;;19.99;34.45;100736.22;1896990;74;28064;-80
